Bangor International Airport Bangor US
ICAO: KBGR
IATA: BGR
Category: Large
Scheduled Services: Yes

Elevation: 192 ft
TransAlt. 18000 ft.

Airport Communications:
APP/DEP:118.925
ASOS:127.75
ATIS:127.75
CLNC DEL:135.9
GND:121.9
ARNG OPS:41.2
ANG OPS:31.1
RDO:122.2
TWR:120.7
UNICOM:122.95

KBGR Zoom In..

Runways:

(A) RW 15 length 11440 ft width 200 ft
ILS 109.50 / hdg 153

(B) RW 33 length 11440 ft width 200 ft
ILS 109.50 / hdg 333

Location; KBGR
Day. 23 / Time. 02.53 Zulu
* Altimeter: 30.26
* Temperature: 21° c. 69.8°f.
* Wind from: 170° Speed 05 kn.
Dewpoint: 21° c.
Visibility: 3 Statute Miles.
Clouds: Overcast 500 ft.
Conditions: Light Rain.Conditions: Mist.

KBGR 230253Z 17005KT 3SM -RA BR OVC005 21/21 A3026 RMK AO2 CIG 004V009 SLP244 P0002 60006 T02110206 51005 $


Wind From 170°
Speed 05 kn.

 
 
jpsmedia.com for Web Design worldairports.se 2018   terms of use